sensor_id;sensor_type;location;lat;lon;timestamp;P1;durP1;ratioP1;P2;durP2;ratioP2
25391;SDS011;13329;48.402;11.718;2023-08-24T00:01:31;7.40;;;3.55;;
25391;SDS011;13329;48.402;11.718;2023-08-24T00:03:57;5.63;;;3.50;;
25391;SDS011;13329;48.402;11.718;2023-08-24T00:06:22;5.60;;;3.50;;
25391;SDS011;13329;48.402;11.718;2023-08-24T00:08:47;6.30;;;3.50;;
25391;SDS011;13329;48.402;11.718;2023-08-24T00:11:12;6.03;;;3.40;;
25391;SDS011;13329;48.402;11.718;2023-08-24T00:13:40;7.90;;;3.67;;
25391;SDS011;13329;48.402;11.718;2023-08-24T00:16:05;4.93;;;3.60;;
25391;SDS011;13329;48.402;11.718;2023-08-24T00:18:30;6.73;;;3.50;;
25391;SDS011;13329;48.402;11.718;2023-08-24T00:20:56;7.67;;;3.77;;
25391;SDS011;13329;48.402;11.718;2023-08-24T00:23:21;4.67;;;3.60;;
25391;SDS011;13329;48.402;11.718;2023-08-24T00:25:46;4.73;;;3.37;;
25391;SDS011;13329;48.402;11.718;2023-08-24T00:28:11;5.30;;;3.60;;
25391;SDS011;13329;48.402;11.718;2023-08-24T00:30:37;9.13;;;3.40;;
25391;SDS011;13329;48.402;11.718;2023-08-24T00:33:02;4.25;;;3.42;;
25391;SDS011;13329;48.402;11.718;2023-08-24T00:35:27;8.25;;;3.65;;
25391;SDS011;13329;48.402;11.718;2023-08-24T00:37:52;4.97;;;3.10;;
25391;SDS011;13329;48.402;11.718;2023-08-24T00:40:17;3.67;;;3.30;;
25391;SDS011;13329;48.402;11.718;2023-08-24T00:42:44;4.95;;;3.15;;
25391;SDS011;13329;48.402;11.718;2023-08-24T00:45:10;5.30;;;3.55;;
25391;SDS011;13329;48.402;11.718;2023-08-24T00:47:39;5.00;;;2.95;;
25391;SDS011;13329;48.402;11.718;2023-08-24T00:50:05;6.13;;;3.47;;
25391;SDS011;13329;48.402;11.718;2023-08-24T00:52:31;6.45;;;3.75;;
25391;SDS011;13329;48.402;11.718;2023-08-24T00:54:56;5.78;;;3.50;;
25391;SDS011;13329;48.402;11.718;2023-08-24T00:57:22;4.57;;;3.53;;
25391;SDS011;13329;48.402;11.718;2023-08-24T00:59:47;5.97;;;3.97;;
25391;SDS011;13329;48.402;11.718;2023-08-24T01:02:13;7.35;;;3.70;;
25391;SDS011;13329;48.402;11.718;2023-08-24T01:04:40;12.00;;;3.40;;
25391;SDS011;13329;48.402;11.718;2023-08-24T01:07:05;7.82;;;3.58;;
25391;SDS011;13329;48.402;11.718;2023-08-24T01:09:31;7.20;;;4.00;;
25391;SDS011;13329;48.402;11.718;2023-08-24T01:12:13;7.57;;;3.60;;
25391;SDS011;13329;48.402;11.718;2023-08-24T01:14:50;4.75;;;3.42;;
25391;SDS011;13329;48.402;11.718;2023-08-24T01:17:15;7.05;;;4.43;;
25391;SDS011;13329;48.402;11.718;2023-08-24T01:19:44;6.35;;;3.35;;
25391;SDS011;13329;48.402;11.718;2023-08-24T01:24:47;12.45;;;3.65;;
25391;SDS011;13329;48.402;11.718;2023-08-24T01:27:18;6.40;;;3.33;;
25391;SDS011;13329;48.402;11.718;2023-08-24T01:29:44;5.70;;;3.35;;
25391;SDS011;13329;48.402;11.718;2023-08-24T01:32:10;4.90;;;3.35;;
25391;SDS011;13329;48.402;11.718;2023-08-24T01:34:38;8.52;;;3.80;;
25391;SDS011;13329;48.402;11.718;2023-08-24T01:37:05;6.43;;;3.55;;
25391;SDS011;13329;48.402;11.718;2023-08-24T01:39:31;3.83;;;3.10;;
25391;SDS011;13329;48.402;11.718;2023-08-24T01:42:00;6.25;;;3.63;;
25391;SDS011;13329;48.402;11.718;2023-08-24T01:44:27;6.47;;;3.95;;
25391;SDS011;13329;48.402;11.718;2023-08-24T01:46:53;5.57;;;3.35;;
25391;SDS011;13329;48.402;11.718;2023-08-24T01:49:19;8.18;;;4.35;;
25391;SDS011;13329;48.402;11.718;2023-08-24T01:51:44;5.22;;;3.50;;
25391;SDS011;13329;48.402;11.718;2023-08-24T01:54:10;9.05;;;3.45;;
25391;SDS011;13329;48.402;11.718;2023-08-24T01:56:36;7.70;;;3.83;;
25391;SDS011;13329;48.402;11.718;2023-08-24T01:59:01;11.47;;;3.97;;
25391;SDS011;13329;48.402;11.718;2023-08-24T02:01:26;5.57;;;3.67;;
25391;SDS011;13329;48.402;11.718;2023-08-24T02:03:51;4.97;;;3.37;;
25391;SDS011;13329;48.402;11.718;2023-08-24T02:06:17;6.67;;;3.53;;
25391;SDS011;13329;48.402;11.718;2023-08-24T02:08:42;4.53;;;3.33;;
25391;SDS011;13329;48.402;11.718;2023-08-24T02:11:09;8.57;;;3.90;;
25391;SDS011;13329;48.402;11.718;2023-08-24T02:13:34;3.83;;;3.17;;
25391;SDS011;13329;48.402;11.718;2023-08-24T02:16:00;5.03;;;3.27;;
25391;SDS011;13329;48.402;11.718;2023-08-24T02:18:26;7.32;;;3.65;;
25391;SDS011;13329;48.402;11.718;2023-08-24T02:20:51;13.23;;;3.20;;
25391;SDS011;13329;48.402;11.718;2023-08-24T02:23:16;8.70;;;3.67;;
25391;SDS011;13329;48.402;11.718;2023-08-24T02:25:41;4.67;;;3.37;;
25391;SDS011;13329;48.402;11.718;2023-08-24T02:28:07;4.03;;;3.38;;
25391;SDS011;13329;48.402;11.718;2023-08-24T02:30:32;8.60;;;3.17;;
25391;SDS011;13329;48.402;11.718;2023-08-24T02:32:57;4.77;;;3.37;;
25391;SDS011;13329;48.402;11.718;2023-08-24T02:35:22;5.93;;;3.33;;
25391;SDS011;13329;48.402;11.718;2023-08-24T02:37:47;5.73;;;3.53;;
25391;SDS011;13329;48.402;11.718;2023-08-24T02:40:14;5.70;;;3.30;;
25391;SDS011;13329;48.402;11.718;2023-08-24T02:42:39;4.37;;;3.43;;
25391;SDS011;13329;48.402;11.718;2023-08-24T02:45:04;4.97;;;3.37;;
25391;SDS011;13329;48.402;11.718;2023-08-24T02:47:29;5.78;;;3.38;;
25391;SDS011;13329;48.402;11.718;2023-08-24T02:49:55;4.93;;;3.53;;
25391;SDS011;13329;48.402;11.718;2023-08-24T02:52:20;10.67;;;4.10;;
25391;SDS011;13329;48.402;11.718;2023-08-24T02:54:45;4.30;;;3.15;;
25391;SDS011;13329;48.402;11.718;2023-08-24T02:57:10;4.80;;;3.50;;
25391;SDS011;13329;48.402;11.718;2023-08-24T02:59:35;4.67;;;3.13;;
25391;SDS011;13329;48.402;11.718;2023-08-24T03:02:01;5.60;;;3.40;;
25391;SDS011;13329;48.402;11.718;2023-08-24T03:04:26;7.22;;;3.55;;
25391;SDS011;13329;48.402;11.718;2023-08-24T03:06:51;5.35;;;3.55;;
25391;SDS011;13329;48.402;11.718;2023-08-24T03:09:17;5.37;;;3.77;;
25391;SDS011;13329;48.402;11.718;2023-08-24T03:11:42;7.68;;;4.40;;
25391;SDS011;13329;48.402;11.718;2023-08-24T03:14:07;4.73;;;3.10;;
25391;SDS011;13329;48.402;11.718;2023-08-24T03:16:33;6.23;;;3.20;;
25391;SDS011;13329;48.402;11.718;2023-08-24T03:18:59;8.48;;;4.15;;
25391;SDS011;13329;48.402;11.718;2023-08-24T03:21:24;7.43;;;4.00;;
25391;SDS011;13329;48.402;11.718;2023-08-24T03:23:49;4.57;;;3.43;;
25391;SDS011;13329;48.402;11.718;2023-08-24T03:26:14;7.20;;;4.10;;
25391;SDS011;13329;48.402;11.718;2023-08-24T03:28:41;6.53;;;3.70;;
25391;SDS011;13329;48.402;11.718;2023-08-24T03:31:06;5.30;;;3.13;;
25391;SDS011;13329;48.402;11.718;2023-08-24T03:33:31;5.30;;;3.97;;
25391;SDS011;13329;48.402;11.718;2023-08-24T03:35:58;5.00;;;3.97;;
25391;SDS011;13329;48.402;11.718;2023-08-24T03:38:23;5.87;;;4.27;;
25391;SDS011;13329;48.402;11.718;2023-08-24T03:40:48;4.70;;;3.50;;
25391;SDS011;13329;48.402;11.718;2023-08-24T03:43:13;4.37;;;3.37;;
25391;SDS011;13329;48.402;11.718;2023-08-24T03:45:38;8.07;;;4.60;;
25391;SDS011;13329;48.402;11.718;2023-08-24T03:48:04;6.50;;;3.57;;
25391;SDS011;13329;48.402;11.718;2023-08-24T03:50:29;11.27;;;4.10;;
25391;SDS011;13329;48.402;11.718;2023-08-24T03:52:54;5.50;;;3.90;;
25391;SDS011;13329;48.402;11.718;2023-08-24T03:55:20;6.90;;;3.53;;
25391;SDS011;13329;48.402;11.718;2023-08-24T03:57:45;5.45;;;3.60;;
25391;SDS011;13329;48.402;11.718;2023-08-24T04:00:10;13.13;;;4.33;;
25391;SDS011;13329;48.402;11.718;2023-08-24T04:02:37;6.97;;;4.05;;
25391;SDS011;13329;48.402;11.718;2023-08-24T04:05:03;5.72;;;3.45;;
25391;SDS011;13329;48.402;11.718;2023-08-24T04:07:28;6.27;;;3.70;;
25391;SDS011;13329;48.402;11.718;2023-08-24T04:09:53;7.43;;;3.60;;
25391;SDS011;13329;48.402;11.718;2023-08-24T04:12:18;5.60;;;3.23;;
25391;SDS011;13329;48.402;11.718;2023-08-24T04:14:43;9.97;;;3.87;;
25391;SDS011;13329;48.402;11.718;2023-08-24T04:17:08;3.67;;;3.30;;
25391;SDS011;13329;48.402;11.718;2023-08-24T04:19:35;8.20;;;4.13;;
25391;SDS011;13329;48.402;11.718;2023-08-24T04:22:02;8.50;;;4.40;;
25391;SDS011;13329;48.402;11.718;2023-08-24T04:24:27;7.17;;;3.47;;
25391;SDS011;13329;48.402;11.718;2023-08-24T04:26:52;6.03;;;3.57;;
25391;SDS011;13329;48.402;11.718;2023-08-24T04:29:17;8.43;;;3.60;;
25391;SDS011;13329;48.402;11.718;2023-08-24T04:31:43;7.37;;;3.90;;
25391;SDS011;13329;48.402;11.718;2023-08-24T04:34:08;5.07;;;3.50;;
25391;SDS011;13329;48.402;11.718;2023-08-24T04:36:34;5.10;;;3.35;;
25391;SDS011;13329;48.402;11.718;2023-08-24T04:38:59;5.83;;;3.57;;
25391;SDS011;13329;48.402;11.718;2023-08-24T04:41:24;8.57;;;4.13;;
25391;SDS011;13329;48.402;11.718;2023-08-24T04:43:49;5.43;;;3.58;;
25391;SDS011;13329;48.402;11.718;2023-08-24T04:46:15;6.50;;;4.37;;
25391;SDS011;13329;48.402;11.718;2023-08-24T04:48:40;8.67;;;4.50;;
25391;SDS011;13329;48.402;11.718;2023-08-24T04:51:05;8.13;;;4.27;;
25391;SDS011;13329;48.402;11.718;2023-08-24T04:53:30;6.67;;;3.37;;
25391;SDS011;13329;48.402;11.718;2023-08-24T04:55:55;8.87;;;4.03;;
25391;SDS011;13329;48.402;11.718;2023-08-24T04:58:21;5.93;;;3.93;;
25391;SDS011;13329;48.402;11.718;2023-08-24T05:00:46;8.30;;;3.83;;
25391;SDS011;13329;48.402;11.718;2023-08-24T05:03:11;5.37;;;3.30;;
25391;SDS011;13329;48.402;11.718;2023-08-24T05:05:36;4.63;;;3.07;;
25391;SDS011;13329;48.402;11.718;2023-08-24T05:08:02;4.82;;;3.63;;
25391;SDS011;13329;48.402;11.718;2023-08-24T05:10:31;10.05;;;3.90;;
25391;SDS011;13329;48.402;11.718;2023-08-24T05:12:56;5.07;;;3.65;;
25391;SDS011;13329;48.402;11.718;2023-08-24T05:15:21;7.60;;;3.50;;
25391;SDS011;13329;48.402;11.718;2023-08-24T05:17:46;4.63;;;3.73;;
25391;SDS011;13329;48.402;11.718;2023-08-24T05:20:11;7.33;;;4.23;;
25391;SDS011;13329;48.402;11.718;2023-08-24T05:22:37;13.43;;;3.93;;
25391;SDS011;13329;48.402;11.718;2023-08-24T05:25:02;6.38;;;3.67;;
25391;SDS011;13329;48.402;11.718;2023-08-24T05:27:27;5.13;;;3.63;;
25391;SDS011;13329;48.402;11.718;2023-08-24T05:29:53;7.97;;;3.17;;
25391;SDS011;13329;48.402;11.718;2023-08-24T05:32:18;6.17;;;3.47;;
25391;SDS011;13329;48.402;11.718;2023-08-24T05:34:44;4.90;;;3.57;;
25391;SDS011;13329;48.402;11.718;2023-08-24T05:37:09;7.07;;;4.43;;
25391;SDS011;13329;48.402;11.718;2023-08-24T05:39:35;5.95;;;3.58;;
25391;SDS011;13329;48.402;11.718;2023-08-24T05:42:00;9.47;;;3.83;;
25391;SDS011;13329;48.402;11.718;2023-08-24T05:44:25;6.93;;;3.90;;
25391;SDS011;13329;48.402;11.718;2023-08-24T05:46:50;4.73;;;3.53;;
25391;SDS011;13329;48.402;11.718;2023-08-24T05:49:16;5.13;;;3.70;;
25391;SDS011;13329;48.402;11.718;2023-08-24T05:51:41;5.33;;;3.00;;
25391;SDS011;13329;48.402;11.718;2023-08-24T05:54:06;6.18;;;3.80;;
25391;SDS011;13329;48.402;11.718;2023-08-24T05:56:32;8.15;;;3.50;;
25391;SDS011;13329;48.402;11.718;2023-08-24T05:58:57;5.93;;;3.30;;
25391;SDS011;13329;48.402;11.718;2023-08-24T06:01:22;4.30;;;3.22;;
25391;SDS011;13329;48.402;11.718;2023-08-24T06:03:48;5.70;;;3.63;;
25391;SDS011;13329;48.402;11.718;2023-08-24T06:06:14;7.93;;;4.28;;
25391;SDS011;13329;48.402;11.718;2023-08-24T06:08:39;6.00;;;4.18;;
25391;SDS011;13329;48.402;11.718;2023-08-24T06:11:04;13.10;;;4.80;;
25391;SDS011;13329;48.402;11.718;2023-08-24T06:13:29;6.23;;;3.87;;
25391;SDS011;13329;48.402;11.718;2023-08-24T06:15:55;7.10;;;4.10;;
25391;SDS011;13329;48.402;11.718;2023-08-24T06:18:20;5.97;;;3.43;;
25391;SDS011;13329;48.402;11.718;2023-08-24T06:20:45;5.38;;;3.45;;
25391;SDS011;13329;48.402;11.718;2023-08-24T06:23:11;7.68;;;4.13;;
25391;SDS011;13329;48.402;11.718;2023-08-24T06:25:38;10.07;;;4.03;;
25391;SDS011;13329;48.402;11.718;2023-08-24T06:28:03;5.67;;;3.47;;
25391;SDS011;13329;48.402;11.718;2023-08-24T06:30:29;9.25;;;4.57;;
25391;SDS011;13329;48.402;11.718;2023-08-24T06:32:57;7.88;;;3.83;;
25391;SDS011;13329;48.402;11.718;2023-08-24T06:35:23;4.50;;;3.90;;
25391;SDS011;13329;48.402;11.718;2023-08-24T06:37:48;7.77;;;3.70;;
25391;SDS011;13329;48.402;11.718;2023-08-24T06:40:13;4.87;;;3.43;;
25391;SDS011;13329;48.402;11.718;2023-08-24T06:42:39;5.13;;;3.65;;
25391;SDS011;13329;48.402;11.718;2023-08-24T06:45:04;7.47;;;4.23;;
25391;SDS011;13329;48.402;11.718;2023-08-24T06:47:29;5.80;;;3.28;;
25391;SDS011;13329;48.402;11.718;2023-08-24T06:49:55;4.70;;;3.17;;
25391;SDS011;13329;48.402;11.718;2023-08-24T06:52:20;5.60;;;3.30;;
25391;SDS011;13329;48.402;11.718;2023-08-24T06:54:45;5.27;;;3.20;;
25391;SDS011;13329;48.402;11.718;2023-08-24T06:57:10;4.40;;;2.90;;
25391;SDS011;13329;48.402;11.718;2023-08-24T06:59:35;7.30;;;3.43;;
25391;SDS011;13329;48.402;11.718;2023-08-24T07:02:01;3.57;;;3.00;;
25391;SDS011;13329;48.402;11.718;2023-08-24T07:04:26;3.13;;;2.83;;
25391;SDS011;13329;48.402;11.718;2023-08-24T07:06:52;5.70;;;3.53;;
25391;SDS011;13329;48.402;11.718;2023-08-24T07:09:17;5.43;;;3.00;;
25391;SDS011;13329;48.402;11.718;2023-08-24T07:11:43;5.57;;;2.63;;
25391;SDS011;13329;48.402;11.718;2023-08-24T07:14:08;4.40;;;2.63;;
25391;SDS011;13329;48.402;11.718;2023-08-24T07:16:33;3.97;;;2.47;;
25391;SDS011;13329;48.402;11.718;2023-08-24T07:18:58;4.60;;;2.40;;
25391;SDS011;13329;48.402;11.718;2023-08-24T07:21:24;3.23;;;2.30;;
25391;SDS011;13329;48.402;11.718;2023-08-24T07:23:49;6.53;;;2.63;;
25391;SDS011;13329;48.402;11.718;2023-08-24T07:26:14;5.03;;;2.40;;
25391;SDS011;13329;48.402;11.718;2023-08-24T07:28:39;3.40;;;1.93;;
25391;SDS011;13329;48.402;11.718;2023-08-24T07:31:11;9.40;;;2.57;;
25391;SDS011;13329;48.402;11.718;2023-08-24T07:33:36;5.32;;;2.60;;
25391;SDS011;13329;48.402;11.718;2023-08-24T07:36:03;2.78;;;2.28;;
25391;SDS011;13329;48.402;11.718;2023-08-24T07:38:29;5.63;;;2.30;;
25391;SDS011;13329;48.402;11.718;2023-08-24T07:40:54;5.77;;;2.57;;
25391;SDS011;13329;48.402;11.718;2023-08-24T07:43:19;2.63;;;2.22;;
25391;SDS011;13329;48.402;11.718;2023-08-24T07:45:45;3.70;;;2.40;;
25391;SDS011;13329;48.402;11.718;2023-08-24T07:48:10;6.47;;;2.13;;
25391;SDS011;13329;48.402;11.718;2023-08-24T07:50:35;4.45;;;2.30;;
25391;SDS011;13329;48.402;11.718;2023-08-24T07:53:00;3.10;;;2.20;;
25391;SDS011;13329;48.402;11.718;2023-08-24T07:55:26;3.17;;;2.23;;
25391;SDS011;13329;48.402;11.718;2023-08-24T07:57:51;3.37;;;2.70;;
25391;SDS011;13329;48.402;11.718;2023-08-24T08:00:16;5.93;;;2.23;;
25391;SDS011;13329;48.402;11.718;2023-08-24T08:02:41;4.20;;;2.30;;
25391;SDS011;13329;48.402;11.718;2023-08-24T08:05:06;2.60;;;2.40;;
25391;SDS011;13329;48.402;11.718;2023-08-24T08:07:32;4.18;;;2.88;;
25391;SDS011;13329;48.402;11.718;2023-08-24T08:09:57;6.30;;;2.20;;
25391;SDS011;13329;48.402;11.718;2023-08-24T08:12:23;4.43;;;2.50;;
25391;SDS011;13329;48.402;11.718;2023-08-24T08:14:48;4.33;;;2.50;;
25391;SDS011;13329;48.402;11.718;2023-08-24T08:17:13;3.30;;;2.40;;
25391;SDS011;13329;48.402;11.718;2023-08-24T08:19:38;6.20;;;2.70;;
25391;SDS011;13329;48.402;11.718;2023-08-24T08:22:04;3.77;;;2.50;;
25391;SDS011;13329;48.402;11.718;2023-08-24T08:24:29;9.43;;;2.88;;
25391;SDS011;13329;48.402;11.718;2023-08-24T08:26:54;2.47;;;1.97;;
25391;SDS011;13329;48.402;11.718;2023-08-24T08:29:19;4.53;;;2.40;;
25391;SDS011;13329;48.402;11.718;2023-08-24T08:31:45;2.67;;;2.27;;
25391;SDS011;13329;48.402;11.718;2023-08-24T08:34:11;6.00;;;2.60;;
25391;SDS011;13329;48.402;11.718;2023-08-24T08:36:36;4.73;;;2.87;;
25391;SDS011;13329;48.402;11.718;2023-08-24T08:39:01;4.00;;;2.60;;
25391;SDS011;13329;48.402;11.718;2023-08-24T08:41:30;4.50;;;2.53;;
25391;SDS011;13329;48.402;11.718;2023-08-24T08:43:55;5.47;;;3.00;;
25391;SDS011;13329;48.402;11.718;2023-08-24T08:46:21;7.40;;;2.30;;
25391;SDS011;13329;48.402;11.718;2023-08-24T08:48:46;4.90;;;2.63;;
25391;SDS011;13329;48.402;11.718;2023-08-24T08:51:11;5.85;;;2.53;;
25391;SDS011;13329;48.402;11.718;2023-08-24T08:53:38;3.30;;;2.33;;
25391;SDS011;13329;48.402;11.718;2023-08-24T08:56:03;3.10;;;2.63;;
25391;SDS011;13329;48.402;11.718;2023-08-24T08:58:29;3.03;;;2.40;;
25391;SDS011;13329;48.402;11.718;2023-08-24T09:00:56;10.68;;;3.00;;
25391;SDS011;13329;48.402;11.718;2023-08-24T09:03:21;5.77;;;2.83;;
25391;SDS011;13329;48.402;11.718;2023-08-24T09:05:46;6.63;;;2.60;;
25391;SDS011;13329;48.402;11.718;2023-08-24T09:08:17;6.10;;;2.60;;
25391;SDS011;13329;48.402;11.718;2023-08-24T09:10:43;3.88;;;2.40;;
25391;SDS011;13329;48.402;11.718;2023-08-24T09:13:09;3.88;;;2.40;;
25391;SDS011;13329;48.402;11.718;2023-08-24T09:15:34;3.27;;;2.47;;
25391;SDS011;13329;48.402;11.718;2023-08-24T09:18:00;8.95;;;2.75;;
25391;SDS011;13329;48.402;11.718;2023-08-24T09:20:27;5.53;;;2.53;;
25391;SDS011;13329;48.402;11.718;2023-08-24T09:22:52;3.75;;;2.40;;
25391;SDS011;13329;48.402;11.718;2023-08-24T09:25:20;6.88;;;2.45;;
25391;SDS011;13329;48.402;11.718;2023-08-24T09:27:45;2.97;;;2.17;;
25391;SDS011;13329;48.402;11.718;2023-08-24T09:30:10;4.33;;;2.67;;
25391;SDS011;13329;48.402;11.718;2023-08-24T09:32:36;2.78;;;2.25;;
25391;SDS011;13329;48.402;11.718;2023-08-24T09:37:36;3.05;;;2.10;;
25391;SDS011;13329;48.402;11.718;2023-08-24T09:40:02;3.50;;;2.67;;
25391;SDS011;13329;48.402;11.718;2023-08-24T09:42:34;5.28;;;2.50;;
25391;SDS011;13329;48.402;11.718;2023-08-24T09:45:02;4.70;;;2.53;;
25391;SDS011;13329;48.402;11.718;2023-08-24T09:47:29;3.63;;;2.38;;
25391;SDS011;13329;48.402;11.718;2023-08-24T09:49:54;4.53;;;2.90;;
25391;SDS011;13329;48.402;11.718;2023-08-24T09:52:19;3.13;;;2.37;;
25391;SDS011;13329;48.402;11.718;2023-08-24T09:54:45;4.40;;;2.83;;
25391;SDS011;13329;48.402;11.718;2023-08-24T09:57:10;5.03;;;3.03;;
25391;SDS011;13329;48.402;11.718;2023-08-24T09:59:35;2.40;;;1.80;;
25391;SDS011;13329;48.402;11.718;2023-08-24T10:02:03;3.42;;;2.33;;
25391;SDS011;13329;48.402;11.718;2023-08-24T10:04:33;3.72;;;2.40;;
25391;SDS011;13329;48.402;11.718;2023-08-24T10:07:10;3.50;;;2.38;;
25391;SDS011;13329;48.402;11.718;2023-08-24T10:09:43;2.70;;;2.22;;
25391;SDS011;13329;48.402;11.718;2023-08-24T10:12:09;12.77;;;2.80;;
25391;SDS011;13329;48.402;11.718;2023-08-24T10:17:15;5.47;;;2.50;;
25391;SDS011;13329;48.402;11.718;2023-08-24T10:19:41;5.03;;;2.63;;
25391;SDS011;13329;48.402;11.718;2023-08-24T10:22:07;3.20;;;2.72;;
25391;SDS011;13329;48.402;11.718;2023-08-24T10:24:32;4.03;;;2.60;;
25391;SDS011;13329;48.402;11.718;2023-08-24T10:26:58;4.25;;;2.40;;
25391;SDS011;13329;48.402;11.718;2023-08-24T10:29:25;8.20;;;2.20;;
25391;SDS011;13329;48.402;11.718;2023-08-24T10:31:52;4.30;;;2.15;;
25391;SDS011;13329;48.402;11.718;2023-08-24T10:34:17;4.13;;;2.63;;
25391;SDS011;13329;48.402;11.718;2023-08-24T10:36:42;4.65;;;2.63;;
25391;SDS011;13329;48.402;11.718;2023-08-24T10:39:08;7.03;;;2.73;;
25391;SDS011;13329;48.402;11.718;2023-08-24T10:42:06;3.70;;;2.40;;
25391;SDS011;13329;48.402;11.718;2023-08-24T10:44:25;9.68;;;2.83;;
25391;SDS011;13329;48.402;11.718;2023-08-24T10:49:42;4.55;;;2.50;;
25391;SDS011;13329;48.402;11.718;2023-08-24T10:52:17;3.33;;;2.45;;
25391;SDS011;13329;48.402;11.718;2023-08-24T10:54:44;10.50;;;2.47;;
25391;SDS011;13329;48.402;11.718;2023-08-24T10:57:17;4.72;;;2.88;;
25391;SDS011;13329;48.402;11.718;2023-08-24T10:59:42;5.18;;;2.72;;
25391;SDS011;13329;48.402;11.718;2023-08-24T11:02:07;4.33;;;2.53;;
25391;SDS011;13329;48.402;11.718;2023-08-24T11:04:43;3.00;;;2.20;;
25391;SDS011;13329;48.402;11.718;2023-08-24T11:07:27;4.97;;;2.50;;
25391;SDS011;13329;48.402;11.718;2023-08-24T11:09:52;3.67;;;2.37;;
25391;SDS011;13329;48.402;11.718;2023-08-24T11:12:17;3.43;;;2.43;;
25391;SDS011;13329;48.402;11.718;2023-08-24T11:14:49;17.05;;;2.30;;
25391;SDS011;13329;48.402;11.718;2023-08-24T11:17:20;3.17;;;2.08;;
25391;SDS011;13329;48.402;11.718;2023-08-24T11:19:47;3.95;;;2.42;;
25391;SDS011;13329;48.402;11.718;2023-08-24T11:22:12;2.85;;;2.40;;
25391;SDS011;13329;48.402;11.718;2023-08-24T11:24:37;4.13;;;2.53;;
25391;SDS011;13329;48.402;11.718;2023-08-24T11:27:03;2.45;;;2.25;;
25391;SDS011;13329;48.402;11.718;2023-08-24T11:29:28;3.28;;;2.40;;
25391;SDS011;13329;48.402;11.718;2023-08-24T11:31:53;2.53;;;2.13;;
25391;SDS011;13329;48.402;11.718;2023-08-24T11:34:19;2.87;;;2.40;;
25391;SDS011;13329;48.402;11.718;2023-08-24T11:36:45;5.67;;;2.80;;
25391;SDS011;13329;48.402;11.718;2023-08-24T11:39:17;3.65;;;2.33;;
25391;SDS011;13329;48.402;11.718;2023-08-24T11:41:44;4.47;;;2.90;;
25391;SDS011;13329;48.402;11.718;2023-08-24T11:44:09;6.80;;;2.70;;
25391;SDS011;13329;48.402;11.718;2023-08-24T11:46:35;3.30;;;2.40;;
25391;SDS011;13329;48.402;11.718;2023-08-24T11:49:02;9.45;;;2.88;;
25391;SDS011;13329;48.402;11.718;2023-08-24T11:51:29;5.35;;;2.22;;
25391;SDS011;13329;48.402;11.718;2023-08-24T11:53:57;5.50;;;2.45;;
25391;SDS011;13329;48.402;11.718;2023-08-24T11:56:23;6.05;;;3.20;;
25391;SDS011;13329;48.402;11.718;2023-08-24T11:58:49;5.10;;;2.97;;
25391;SDS011;13329;48.402;11.718;2023-08-24T12:01:15;6.85;;;3.47;;
25391;SDS011;13329;48.402;11.718;2023-08-24T12:03:40;6.97;;;3.58;;
25391;SDS011;13329;48.402;11.718;2023-08-24T12:06:13;5.88;;;2.97;;
25391;SDS011;13329;48.402;11.718;2023-08-24T12:08:41;6.25;;;2.78;;
25391;SDS011;13329;48.402;11.718;2023-08-24T12:11:17;4.13;;;2.92;;
25391;SDS011;13329;48.402;11.718;2023-08-24T12:13:43;4.63;;;3.15;;
25391;SDS011;13329;48.402;11.718;2023-08-24T12:16:09;4.97;;;2.80;;
25391;SDS011;13329;48.402;11.718;2023-08-24T12:18:35;3.92;;;2.78;;
25391;SDS011;13329;48.402;11.718;2023-08-24T12:21:00;7.25;;;2.83;;
25391;SDS011;13329;48.402;11.718;2023-08-24T12:23:26;5.87;;;2.97;;
25391;SDS011;13329;48.402;11.718;2023-08-24T12:25:53;5.10;;;3.22;;
25391;SDS011;13329;48.402;11.718;2023-08-24T12:28:18;8.27;;;3.58;;
25391;SDS011;13329;48.402;11.718;2023-08-24T12:30:50;4.90;;;3.20;;
25391;SDS011;13329;48.402;11.718;2023-08-24T12:33:25;6.72;;;2.97;;
25391;SDS011;13329;48.402;11.718;2023-08-24T12:35:50;8.15;;;2.65;;
25391;SDS011;13329;48.402;11.718;2023-08-24T12:38:16;6.95;;;3.03;;
25391;SDS011;13329;48.402;11.718;2023-08-24T12:40:41;3.47;;;2.63;;
25391;SDS011;13329;48.402;11.718;2023-08-24T12:43:06;4.83;;;3.20;;
25391;SDS011;13329;48.402;11.718;2023-08-24T12:45:31;4.00;;;2.83;;
25391;SDS011;13329;48.402;11.718;2023-08-24T12:47:56;4.47;;;3.00;;
25391;SDS011;13329;48.402;11.718;2023-08-24T12:50:22;5.13;;;3.30;;
25391;SDS011;13329;48.402;11.718;2023-08-24T12:52:47;11.20;;;3.67;;
25391;SDS011;13329;48.402;11.718;2023-08-24T12:55:12;4.97;;;2.83;;
25391;SDS011;13329;48.402;11.718;2023-08-24T12:57:37;7.43;;;3.37;;
25391;SDS011;13329;48.402;11.718;2023-08-24T13:00:02;4.03;;;2.73;;
25391;SDS011;13329;48.402;11.718;2023-08-24T13:02:28;9.35;;;3.40;;
25391;SDS011;13329;48.402;11.718;2023-08-24T13:04:53;7.30;;;3.57;;
25391;SDS011;13329;48.402;11.718;2023-08-24T13:07:19;16.23;;;3.45;;
25391;SDS011;13329;48.402;11.718;2023-08-24T13:09:44;5.03;;;3.10;;
25391;SDS011;13329;48.402;11.718;2023-08-24T13:12:09;13.33;;;3.37;;
25391;SDS011;13329;48.402;11.718;2023-08-24T13:14:34;7.43;;;2.77;;
25391;SDS011;13329;48.402;11.718;2023-08-24T13:16:59;7.43;;;2.70;;
25391;SDS011;13329;48.402;11.718;2023-08-24T13:19:24;5.50;;;2.40;;
25391;SDS011;13329;48.402;11.718;2023-08-24T13:21:50;3.70;;;2.80;;
25391;SDS011;13329;48.402;11.718;2023-08-24T13:24:15;8.00;;;3.63;;
25391;SDS011;13329;48.402;11.718;2023-08-24T13:26:40;6.67;;;2.90;;
25391;SDS011;13329;48.402;11.718;2023-08-24T13:29:05;4.60;;;2.90;;
25391;SDS011;13329;48.402;11.718;2023-08-24T13:31:30;4.80;;;2.90;;
25391;SDS011;13329;48.402;11.718;2023-08-24T13:33:55;5.40;;;2.97;;
25391;SDS011;13329;48.402;11.718;2023-08-24T13:36:21;3.93;;;2.80;;
25391;SDS011;13329;48.402;11.718;2023-08-24T13:38:46;6.60;;;2.93;;
25391;SDS011;13329;48.402;11.718;2023-08-24T13:41:12;7.90;;;3.10;;
25391;SDS011;13329;48.402;11.718;2023-08-24T13:43:37;11.10;;;3.30;;
25391;SDS011;13329;48.402;11.718;2023-08-24T13:46:03;5.60;;;2.60;;
25391;SDS011;13329;48.402;11.718;2023-08-24T13:48:28;10.97;;;2.87;;
25391;SDS011;13329;48.402;11.718;2023-08-24T13:50:54;3.55;;;2.42;;
25391;SDS011;13329;48.402;11.718;2023-08-24T13:53:19;5.93;;;2.90;;
25391;SDS011;13329;48.402;11.718;2023-08-24T13:55:44;7.10;;;2.78;;
25391;SDS011;13329;48.402;11.718;2023-08-24T13:58:10;5.23;;;2.80;;
25391;SDS011;13329;48.402;11.718;2023-08-24T14:00:36;3.75;;;2.78;;
25391;SDS011;13329;48.402;11.718;2023-08-24T14:03:01;8.27;;;2.63;;
25391;SDS011;13329;48.402;11.718;2023-08-24T14:05:26;4.35;;;3.10;;
25391;SDS011;13329;48.402;11.718;2023-08-24T14:07:51;8.90;;;3.27;;
25391;SDS011;13329;48.402;11.718;2023-08-24T14:10:16;4.00;;;2.93;;
25391;SDS011;13329;48.402;11.718;2023-08-24T14:12:41;8.20;;;3.07;;
25391;SDS011;13329;48.402;11.718;2023-08-24T14:15:07;7.13;;;2.70;;
25391;SDS011;13329;48.402;11.718;2023-08-24T14:17:32;4.50;;;2.88;;
25391;SDS011;13329;48.402;11.718;2023-08-24T14:19:57;11.77;;;3.27;;
25391;SDS011;13329;48.402;11.718;2023-08-24T14:22:23;6.50;;;2.90;;
25391;SDS011;13329;48.402;11.718;2023-08-24T14:24:48;5.37;;;3.37;;
25391;SDS011;13329;48.402;11.718;2023-08-24T14:27:13;6.20;;;2.87;;
25391;SDS011;13329;48.402;11.718;2023-08-24T14:29:38;6.80;;;2.90;;
25391;SDS011;13329;48.402;11.718;2023-08-24T14:32:03;9.23;;;2.92;;
25391;SDS011;13329;48.402;11.718;2023-08-24T14:34:29;9.00;;;3.03;;
25391;SDS011;13329;48.402;11.718;2023-08-24T14:36:54;4.13;;;2.73;;